sensor_id;sensor_type;location;lat;lon;timestamp;P1;durP1;ratioP1;P2;durP2;ratioP2
77736;SDS011;66903;59.926;30.404;2023-04-15T00:04:02;2.40;;;0.60;;
77736;SDS011;66903;59.926;30.404;2023-04-15T00:09:03;1.25;;;0.50;;
77736;SDS011;66903;59.926;30.404;2023-04-15T00:14:13;1.23;;;0.40;;
77736;SDS011;66903;59.926;30.404;2023-04-15T00:19:23;1.17;;;0.40;;
77736;SDS011;66903;59.926;30.404;2023-04-15T00:24:24;1.05;;;0.25;;
77736;SDS011;66903;59.926;30.404;2023-04-15T00:29:25;1.70;;;0.60;;
77736;SDS011;66903;59.926;30.404;2023-04-15T00:34:25;1.38;;;0.47;;
77736;SDS011;66903;59.926;30.404;2023-04-15T00:39:26;0.95;;;0.40;;
77736;SDS011;66903;59.926;30.404;2023-04-15T00:44:27;1.17;;;0.40;;
77736;SDS011;66903;59.926;30.404;2023-04-15T00:49:28;1.80;;;0.63;;
77736;SDS011;66903;59.926;30.404;2023-04-15T00:54:28;1.20;;;0.38;;
77736;SDS011;66903;59.926;30.404;2023-04-15T00:59:29;1.55;;;0.43;;
77736;SDS011;66903;59.926;30.404;2023-04-15T01:04:30;1.30;;;0.45;;
77736;SDS011;66903;59.926;30.404;2023-04-15T01:09:31;0.65;;;0.32;;
77736;SDS011;66903;59.926;30.404;2023-04-15T01:14:32;1.63;;;0.47;;
77736;SDS011;66903;59.926;30.404;2023-04-15T01:19:33;0.75;;;0.25;;
77736;SDS011;66903;59.926;30.404;2023-04-15T01:24:35;0.77;;;0.30;;
77736;SDS011;66903;59.926;30.404;2023-04-15T01:29:37;0.65;;;0.40;;
77736;SDS011;66903;59.926;30.404;2023-04-15T01:34:37;1.48;;;0.43;;
77736;SDS011;66903;59.926;30.404;2023-04-15T01:39:38;1.58;;;0.50;;
77736;SDS011;66903;59.926;30.404;2023-04-15T01:44:39;1.00;;;0.38;;
77736;SDS011;66903;59.926;30.404;2023-04-15T01:49:40;1.80;;;0.47;;
77736;SDS011;66903;59.926;30.404;2023-04-15T01:54:40;1.65;;;0.60;;
77736;SDS011;66903;59.926;30.404;2023-04-15T01:59:41;1.83;;;0.60;;
77736;SDS011;66903;59.926;30.404;2023-04-15T02:04:42;1.25;;;0.50;;
77736;SDS011;66903;59.926;30.404;2023-04-15T02:09:42;1.08;;;0.32;;
77736;SDS011;66903;59.926;30.404;2023-04-15T02:14:45;1.00;;;0.40;;
77736;SDS011;66903;59.926;30.404;2023-04-15T02:19:46;1.30;;;0.43;;
77736;SDS011;66903;59.926;30.404;2023-04-15T02:24:47;0.55;;;0.35;;
77736;SDS011;66903;59.926;30.404;2023-04-15T02:29:47;0.63;;;0.20;;
77736;SDS011;66903;59.926;30.404;2023-04-15T02:35:00;1.45;;;0.50;;
77736;SDS011;66903;59.926;30.404;2023-04-15T02:40:01;1.17;;;0.60;;
77736;SDS011;66903;59.926;30.404;2023-04-15T02:45:04;0.22;;;0.20;;
77736;SDS011;66903;59.926;30.404;2023-04-15T02:50:07;1.35;;;0.50;;
77736;SDS011;66903;59.926;30.404;2023-04-15T02:55:08;1.58;;;0.43;;
77736;SDS011;66903;59.926;30.404;2023-04-15T03:00:09;0.80;;;0.35;;
77736;SDS011;66903;59.926;30.404;2023-04-15T03:05:13;1.85;;;0.60;;
77736;SDS011;66903;59.926;30.404;2023-04-15T03:10:14;1.05;;;0.40;;
77736;SDS011;66903;59.926;30.404;2023-04-15T03:15:14;2.28;;;0.50;;
77736;SDS011;66903;59.926;30.404;2023-04-15T03:20:15;1.02;;;0.50;;
77736;SDS011;66903;59.926;30.404;2023-04-15T03:25:16;0.93;;;0.50;;
77736;SDS011;66903;59.926;30.404;2023-04-15T03:30:16;0.93;;;0.28;;
77736;SDS011;66903;59.926;30.404;2023-04-15T03:35:17;0.38;;;0.28;;
77736;SDS011;66903;59.926;30.404;2023-04-15T03:40:20;0.95;;;0.40;;
77736;SDS011;66903;59.926;30.404;2023-04-15T03:45:20;2.33;;;0.45;;
77736;SDS011;66903;59.926;30.404;2023-04-15T03:50:21;1.13;;;0.40;;
77736;SDS011;66903;59.926;30.404;2023-04-15T03:55:22;1.40;;;0.50;;
77736;SDS011;66903;59.926;30.404;2023-04-15T04:00:22;0.73;;;0.30;;
77736;SDS011;66903;59.926;30.404;2023-04-15T04:05:23;1.60;;;0.52;;
77736;SDS011;66903;59.926;30.404;2023-04-15T04:10:23;1.27;;;0.60;;
77736;SDS011;66903;59.926;30.404;2023-04-15T04:15:24;1.67;;;0.50;;
77736;SDS011;66903;59.926;30.404;2023-04-15T04:20:24;1.55;;;0.50;;
77736;SDS011;66903;59.926;30.404;2023-04-15T04:25:25;1.15;;;0.50;;
77736;SDS011;66903;59.926;30.404;2023-04-15T04:30:26;1.27;;;0.50;;
77736;SDS011;66903;59.926;30.404;2023-04-15T04:35:26;1.70;;;0.50;;
77736;SDS011;66903;59.926;30.404;2023-04-15T04:40:27;0.80;;;0.40;;
77736;SDS011;66903;59.926;30.404;2023-04-15T04:45:27;1.25;;;0.50;;
77736;SDS011;66903;59.926;30.404;2023-04-15T04:50:28;1.10;;;0.50;;
77736;SDS011;66903;59.926;30.404;2023-04-15T04:55:28;1.73;;;0.60;;
77736;SDS011;66903;59.926;30.404;2023-04-15T05:00:29;0.70;;;0.40;;
77736;SDS011;66903;59.926;30.404;2023-04-15T05:05:29;1.42;;;0.50;;
77736;SDS011;66903;59.926;30.404;2023-04-15T05:10:30;0.88;;;0.40;;
77736;SDS011;66903;59.926;30.404;2023-04-15T05:15:30;1.00;;;0.50;;
77736;SDS011;66903;59.926;30.404;2023-04-15T05:20:32;1.98;;;0.50;;
77736;SDS011;66903;59.926;30.404;2023-04-15T05:25:32;1.20;;;0.40;;
77736;SDS011;66903;59.926;30.404;2023-04-15T05:30:33;0.85;;;0.45;;
77736;SDS011;66903;59.926;30.404;2023-04-15T05:35:33;3.35;;;0.47;;
77736;SDS011;66903;59.926;30.404;2023-04-15T05:40:34;0.88;;;0.40;;
77736;SDS011;66903;59.926;30.404;2023-04-15T05:45:35;1.42;;;0.50;;
77736;SDS011;66903;59.926;30.404;2023-04-15T05:50:36;1.92;;;0.57;;
77736;SDS011;66903;59.926;30.404;2023-04-15T05:55:39;2.55;;;0.60;;
77736;SDS011;66903;59.926;30.404;2023-04-15T06:00:40;2.10;;;0.70;;
77736;SDS011;66903;59.926;30.404;2023-04-15T06:05:41;0.98;;;0.40;;
77736;SDS011;66903;59.926;30.404;2023-04-15T06:10:43;0.88;;;0.40;;
77736;SDS011;66903;59.926;30.404;2023-04-15T06:15:45;1.55;;;0.63;;
77736;SDS011;66903;59.926;30.404;2023-04-15T06:20:45;1.10;;;0.40;;
77736;SDS011;66903;59.926;30.404;2023-04-15T06:25:46;1.30;;;0.40;;
77736;SDS011;66903;59.926;30.404;2023-04-15T06:30:46;1.08;;;0.45;;
77736;SDS011;66903;59.926;30.404;2023-04-15T06:35:47;0.68;;;0.40;;
77736;SDS011;66903;59.926;30.404;2023-04-15T06:40:48;1.48;;;0.50;;
77736;SDS011;66903;59.926;30.404;2023-04-15T06:45:49;1.52;;;0.30;;
77736;SDS011;66903;59.926;30.404;2023-04-15T06:50:50;1.42;;;0.43;;
77736;SDS011;66903;59.926;30.404;2023-04-15T06:55:50;3.15;;;1.17;;
77736;SDS011;66903;59.926;30.404;2023-04-15T07:00:51;3.13;;;0.63;;
77736;SDS011;66903;59.926;30.404;2023-04-15T07:05:52;2.22;;;0.52;;
77736;SDS011;66903;59.926;30.404;2023-04-15T07:10:52;1.48;;;0.52;;
77736;SDS011;66903;59.926;30.404;2023-04-15T07:15:53;2.20;;;0.73;;
77736;SDS011;66903;59.926;30.404;2023-04-15T07:20:54;3.70;;;0.98;;
77736;SDS011;66903;59.926;30.404;2023-04-15T07:25:55;2.97;;;0.70;;
77736;SDS011;66903;59.926;30.404;2023-04-15T07:30:56;1.40;;;0.43;;
77736;SDS011;66903;59.926;30.404;2023-04-15T07:35:56;2.30;;;0.70;;
77736;SDS011;66903;59.926;30.404;2023-04-15T07:40:57;2.92;;;0.70;;
77736;SDS011;66903;59.926;30.404;2023-04-15T07:45:58;0.80;;;0.40;;
77736;SDS011;66903;59.926;30.404;2023-04-15T07:50:59;1.65;;;0.47;;
77736;SDS011;66903;59.926;30.404;2023-04-15T07:56:00;2.33;;;0.80;;
77736;SDS011;66903;59.926;30.404;2023-04-15T08:01:00;1.75;;;0.70;;
77736;SDS011;66903;59.926;30.404;2023-04-15T08:06:01;2.00;;;0.73;;
77736;SDS011;66903;59.926;30.404;2023-04-15T08:11:01;1.77;;;0.63;;
77736;SDS011;66903;59.926;30.404;2023-04-15T08:21:22;1.02;;;0.45;;
77736;SDS011;66903;59.926;30.404;2023-04-15T08:26:24;1.83;;;0.60;;
77736;SDS011;66903;59.926;30.404;2023-04-15T08:31:25;1.92;;;0.50;;
77736;SDS011;66903;59.926;30.404;2023-04-15T08:36:26;1.77;;;0.50;;
77736;SDS011;66903;59.926;30.404;2023-04-15T08:41:27;1.90;;;0.63;;
77736;SDS011;66903;59.926;30.404;2023-04-15T08:46:30;2.63;;;0.80;;
77736;SDS011;66903;59.926;30.404;2023-04-15T08:51:33;1.08;;;0.40;;
77736;SDS011;66903;59.926;30.404;2023-04-15T08:56:34;1.65;;;0.60;;
77736;SDS011;66903;59.926;30.404;2023-04-15T09:01:36;4.13;;;0.57;;
77736;SDS011;66903;59.926;30.404;2023-04-15T09:06:38;3.28;;;1.08;;
77736;SDS011;66903;59.926;30.404;2023-04-15T09:11:39;3.88;;;0.60;;
77736;SDS011;66903;59.926;30.404;2023-04-15T09:16:54;4.20;;;0.70;;
77736;SDS011;66903;59.926;30.404;2023-04-15T09:21:57;2.92;;;0.80;;
77736;SDS011;66903;59.926;30.404;2023-04-15T09:26:58;2.05;;;0.80;;
77736;SDS011;66903;59.926;30.404;2023-04-15T09:32:09;2.97;;;0.90;;
77736;SDS011;66903;59.926;30.404;2023-04-15T09:37:13;2.55;;;0.75;;
77736;SDS011;66903;59.926;30.404;2023-04-15T09:42:17;3.75;;;1.52;;
77736;SDS011;66903;59.926;30.404;2023-04-15T09:47:26;2.28;;;0.88;;
77736;SDS011;66903;59.926;30.404;2023-04-15T09:52:31;2.75;;;0.85;;
77736;SDS011;66903;59.926;30.404;2023-04-15T09:57:35;1.67;;;0.45;;
77736;SDS011;66903;59.926;30.404;2023-04-15T10:02:36;2.38;;;0.77;;
77736;SDS011;66903;59.926;30.404;2023-04-15T10:07:38;4.03;;;1.13;;
77736;SDS011;66903;59.926;30.404;2023-04-15T10:12:42;2.72;;;0.82;;
77736;SDS011;66903;59.926;30.404;2023-04-15T10:17:45;3.33;;;1.08;;
77736;SDS011;66903;59.926;30.404;2023-04-15T10:22:50;3.78;;;0.80;;
77736;SDS011;66903;59.926;30.404;2023-04-15T10:27:52;3.60;;;0.80;;
77736;SDS011;66903;59.926;30.404;2023-04-15T10:32:52;2.60;;;0.80;;
77736;SDS011;66903;59.926;30.404;2023-04-15T10:37:55;2.85;;;0.98;;
77736;SDS011;66903;59.926;30.404;2023-04-15T10:42:56;4.13;;;0.90;;
77736;SDS011;66903;59.926;30.404;2023-04-15T10:48:02;4.50;;;0.68;;
77736;SDS011;66903;59.926;30.404;2023-04-15T10:53:04;3.47;;;0.85;;
77736;SDS011;66903;59.926;30.404;2023-04-15T10:58:04;2.00;;;0.63;;
77736;SDS011;66903;59.926;30.404;2023-04-15T11:03:06;2.67;;;0.75;;
77736;SDS011;66903;59.926;30.404;2023-04-15T11:08:08;2.05;;;0.70;;
77736;SDS011;66903;59.926;30.404;2023-04-15T11:18:26;3.22;;;0.90;;
77736;SDS011;66903;59.926;30.404;2023-04-15T11:23:42;1.20;;;0.50;;
77736;SDS011;66903;59.926;30.404;2023-04-15T11:28:46;1.60;;;0.52;;
77736;SDS011;66903;59.926;30.404;2023-04-15T11:33:53;1.73;;;0.68;;
77736;SDS011;66903;59.926;30.404;2023-04-15T11:38:56;1.60;;;0.60;;
77736;SDS011;66903;59.926;30.404;2023-04-15T11:43:58;1.75;;;0.50;;
77736;SDS011;66903;59.926;30.404;2023-04-15T11:48:59;1.35;;;0.50;;
77736;SDS011;66903;59.926;30.404;2023-04-15T11:54:00;2.00;;;0.60;;
77736;SDS011;66903;59.926;30.404;2023-04-15T11:59:01;2.15;;;0.80;;
77736;SDS011;66903;59.926;30.404;2023-04-15T12:04:09;1.27;;;0.65;;
77736;SDS011;66903;59.926;30.404;2023-04-15T12:09:12;1.92;;;0.77;;
77736;SDS011;66903;59.926;30.404;2023-04-15T12:19:28;1.95;;;0.75;;
77736;SDS011;66903;59.926;30.404;2023-04-15T12:24:32;1.95;;;0.70;;
77736;SDS011;66903;59.926;30.404;2023-04-15T12:29:34;2.42;;;0.60;;
77736;SDS011;66903;59.926;30.404;2023-04-15T12:34:53;1.98;;;0.70;;
77736;SDS011;66903;59.926;30.404;2023-04-15T12:39:54;1.77;;;0.60;;
77736;SDS011;66903;59.926;30.404;2023-04-15T12:44:55;4.82;;;0.93;;
77736;SDS011;66903;59.926;30.404;2023-04-15T12:49:55;3.05;;;0.75;;
77736;SDS011;66903;59.926;30.404;2023-04-15T12:54:56;2.15;;;0.70;;
77736;SDS011;66903;59.926;30.404;2023-04-15T12:59:56;2.38;;;0.60;;
77736;SDS011;66903;59.926;30.404;2023-04-15T13:04:57;1.67;;;0.60;;
77736;SDS011;66903;59.926;30.404;2023-04-15T13:09:57;2.10;;;0.73;;
77736;SDS011;66903;59.926;30.404;2023-04-15T13:14:58;2.08;;;0.50;;
77736;SDS011;66903;59.926;30.404;2023-04-15T13:19:58;1.67;;;0.52;;
77736;SDS011;66903;59.926;30.404;2023-04-15T13:24:59;2.25;;;0.80;;
77736;SDS011;66903;59.926;30.404;2023-04-15T13:30:00;2.05;;;0.70;;
77736;SDS011;66903;59.926;30.404;2023-04-15T13:35:00;1.75;;;0.68;;
77736;SDS011;66903;59.926;30.404;2023-04-15T13:40:01;2.28;;;0.70;;
77736;SDS011;66903;59.926;30.404;2023-04-15T13:45:02;1.90;;;0.52;;
77736;SDS011;66903;59.926;30.404;2023-04-15T13:50:02;1.52;;;0.50;;
77736;SDS011;66903;59.926;30.404;2023-04-15T13:55:03;3.30;;;0.63;;
77736;SDS011;66903;59.926;30.404;2023-04-15T14:00:05;1.85;;;0.60;;
77736;SDS011;66903;59.926;30.404;2023-04-15T14:05:06;2.13;;;0.77;;
77736;SDS011;66903;59.926;30.404;2023-04-15T14:10:07;2.08;;;0.63;;
77736;SDS011;66903;59.926;30.404;2023-04-15T14:15:08;3.13;;;0.90;;
77736;SDS011;66903;59.926;30.404;2023-04-15T14:20:09;2.40;;;0.80;;
77736;SDS011;66903;59.926;30.404;2023-04-15T14:25:10;4.85;;;0.75;;
77736;SDS011;66903;59.926;30.404;2023-04-15T14:30:10;5.13;;;0.93;;
77736;SDS011;66903;59.926;30.404;2023-04-15T14:35:11;2.03;;;0.80;;
77736;SDS011;66903;59.926;30.404;2023-04-15T14:40:11;2.67;;;0.90;;
77736;SDS011;66903;59.926;30.404;2023-04-15T14:45:12;1.58;;;0.65;;
77736;SDS011;66903;59.926;30.404;2023-04-15T14:50:13;3.00;;;0.90;;
77736;SDS011;66903;59.926;30.404;2023-04-15T14:55:13;2.08;;;0.68;;
77736;SDS011;66903;59.926;30.404;2023-04-15T15:00:14;2.45;;;0.75;;
77736;SDS011;66903;59.926;30.404;2023-04-15T15:05:14;2.50;;;0.80;;
77736;SDS011;66903;59.926;30.404;2023-04-15T15:10:15;2.15;;;0.82;;
77736;SDS011;66903;59.926;30.404;2023-04-15T15:15:16;2.80;;;0.98;;
77736;SDS011;66903;59.926;30.404;2023-04-15T15:20:16;2.88;;;1.10;;
77736;SDS011;66903;59.926;30.404;2023-04-15T15:25:18;2.35;;;0.88;;
77736;SDS011;66903;59.926;30.404;2023-04-15T15:30:18;4.38;;;1.08;;
77736;SDS011;66903;59.926;30.404;2023-04-15T15:35:19;4.03;;;1.20;;
77736;SDS011;66903;59.926;30.404;2023-04-15T15:40:21;4.55;;;1.08;;
77736;SDS011;66903;59.926;30.404;2023-04-15T15:45:22;2.63;;;0.95;;
77736;SDS011;66903;59.926;30.404;2023-04-15T15:50:23;2.88;;;0.90;;
77736;SDS011;66903;59.926;30.404;2023-04-15T15:55:23;3.22;;;0.70;;
77736;SDS011;66903;59.926;30.404;2023-04-15T16:00:26;3.53;;;0.80;;
77736;SDS011;66903;59.926;30.404;2023-04-15T16:05:26;2.40;;;0.75;;
77736;SDS011;66903;59.926;30.404;2023-04-15T16:10:27;4.38;;;1.00;;
77736;SDS011;66903;59.926;30.404;2023-04-15T16:15:27;3.70;;;0.80;;
77736;SDS011;66903;59.926;30.404;2023-04-15T16:20:28;2.38;;;0.70;;
77736;SDS011;66903;59.926;30.404;2023-04-15T16:25:28;1.67;;;0.75;;
77736;SDS011;66903;59.926;30.404;2023-04-15T16:30:29;2.33;;;0.77;;
77736;SDS011;66903;59.926;30.404;2023-04-15T16:35:30;5.13;;;1.80;;
77736;SDS011;66903;59.926;30.404;2023-04-15T16:40:30;4.22;;;2.00;;
77736;SDS011;66903;59.926;30.404;2023-04-15T16:45:32;4.90;;;1.73;;
77736;SDS011;66903;59.926;30.404;2023-04-15T16:50:32;4.50;;;1.90;;
77736;SDS011;66903;59.926;30.404;2023-04-15T16:55:33;5.82;;;1.90;;
77736;SDS011;66903;59.926;30.404;2023-04-15T17:00:33;5.07;;;1.52;;
77736;SDS011;66903;59.926;30.404;2023-04-15T17:05:36;5.13;;;1.50;;
77736;SDS011;66903;59.926;30.404;2023-04-15T17:10:37;3.25;;;1.33;;
77736;SDS011;66903;59.926;30.404;2023-04-15T17:15:37;3.17;;;1.20;;
77736;SDS011;66903;59.926;30.404;2023-04-15T17:20:39;3.05;;;1.15;;
77736;SDS011;66903;59.926;30.404;2023-04-15T17:25:40;3.35;;;1.30;;
77736;SDS011;66903;59.926;30.404;2023-04-15T17:30:40;3.88;;;1.30;;
77736;SDS011;66903;59.926;30.404;2023-04-15T17:35:41;3.30;;;1.20;;
77736;SDS011;66903;59.926;30.404;2023-04-15T17:40:41;3.72;;;1.35;;
77736;SDS011;66903;59.926;30.404;2023-04-15T17:45:42;3.85;;;1.23;;
77736;SDS011;66903;59.926;30.404;2023-04-15T17:50:43;3.50;;;1.30;;
77736;SDS011;66903;59.926;30.404;2023-04-15T17:55:43;6.75;;;1.40;;
77736;SDS011;66903;59.926;30.404;2023-04-15T18:00:45;3.70;;;1.40;;
77736;SDS011;66903;59.926;30.404;2023-04-15T18:05:46;3.47;;;1.17;;
77736;SDS011;66903;59.926;30.404;2023-04-15T18:10:47;3.88;;;1.20;;
77736;SDS011;66903;59.926;30.404;2023-04-15T18:15:47;3.10;;;1.10;;
77736;SDS011;66903;59.926;30.404;2023-04-15T18:20:49;3.00;;;1.20;;
77736;SDS011;66903;59.926;30.404;2023-04-15T18:25:50;3.85;;;1.15;;
77736;SDS011;66903;59.926;30.404;2023-04-15T18:30:50;9.18;;;1.08;;
77736;SDS011;66903;59.926;30.404;2023-04-15T18:35:51;5.90;;;1.02;;
77736;SDS011;66903;59.926;30.404;2023-04-15T18:40:51;3.35;;;1.08;;
77736;SDS011;66903;59.926;30.404;2023-04-15T18:45:52;2.78;;;0.93;;
77736;SDS011;66903;59.926;30.404;2023-04-15T18:50:53;3.92;;;1.10;;
77736;SDS011;66903;59.926;30.404;2023-04-15T18:55:57;5.65;;;1.17;;
77736;SDS011;66903;59.926;30.404;2023-04-15T19:01:00;3.65;;;0.93;;
77736;SDS011;66903;59.926;30.404;2023-04-15T19:06:01;3.42;;;0.98;;
77736;SDS011;66903;59.926;30.404;2023-04-15T19:11:02;2.13;;;0.68;;
77736;SDS011;66903;59.926;30.404;2023-04-15T19:16:02;8.73;;;1.40;;
77736;SDS011;66903;59.926;30.404;2023-04-15T19:21:03;4.45;;;1.63;;
77736;SDS011;66903;59.926;30.404;2023-04-15T19:26:03;4.60;;;1.70;;
77736;SDS011;66903;59.926;30.404;2023-04-15T19:31:07;4.53;;;1.25;;
77736;SDS011;66903;59.926;30.404;2023-04-15T19:36:07;4.00;;;1.40;;
77736;SDS011;66903;59.926;30.404;2023-04-15T19:41:08;2.85;;;1.10;;
77736;SDS011;66903;59.926;30.404;2023-04-15T19:46:10;3.65;;;1.20;;
77736;SDS011;66903;59.926;30.404;2023-04-15T19:51:12;2.80;;;1.00;;
77736;SDS011;66903;59.926;30.404;2023-04-15T19:56:12;2.47;;;0.90;;
77736;SDS011;66903;59.926;30.404;2023-04-15T20:01:13;3.55;;;1.10;;
77736;SDS011;66903;59.926;30.404;2023-04-15T20:06:13;2.50;;;0.88;;
77736;SDS011;66903;59.926;30.404;2023-04-15T20:11:14;4.22;;;1.00;;
77736;SDS011;66903;59.926;30.404;2023-04-15T20:16:15;3.40;;;0.90;;
77736;SDS011;66903;59.926;30.404;2023-04-15T20:21:15;2.58;;;0.90;;
77736;SDS011;66903;59.926;30.404;2023-04-15T20:26:16;2.65;;;0.77;;
77736;SDS011;66903;59.926;30.404;2023-04-15T20:31:17;3.90;;;1.00;;
77736;SDS011;66903;59.926;30.404;2023-04-15T20:36:17;2.97;;;1.00;;
77736;SDS011;66903;59.926;30.404;2023-04-15T20:41:18;5.35;;;1.20;;
77736;SDS011;66903;59.926;30.404;2023-04-15T20:46:19;2.75;;;0.80;;
77736;SDS011;66903;59.926;30.404;2023-04-15T20:51:20;4.00;;;1.20;;
77736;SDS011;66903;59.926;30.404;2023-04-15T20:56:20;2.80;;;1.13;;
77736;SDS011;66903;59.926;30.404;2023-04-15T21:01:21;2.83;;;1.00;;
77736;SDS011;66903;59.926;30.404;2023-04-15T21:06:22;3.35;;;1.08;;
77736;SDS011;66903;59.926;30.404;2023-04-15T21:11:22;3.22;;;0.70;;
77736;SDS011;66903;59.926;30.404;2023-04-15T21:16:23;2.85;;;1.00;;
77736;SDS011;66903;59.926;30.404;2023-04-15T21:21:23;2.63;;;0.90;;
77736;SDS011;66903;59.926;30.404;2023-04-15T21:26:25;3.95;;;1.13;;
77736;SDS011;66903;59.926;30.404;2023-04-15T21:31:26;3.40;;;1.25;;
77736;SDS011;66903;59.926;30.404;2023-04-15T21:36:27;3.08;;;1.00;;
77736;SDS011;66903;59.926;30.404;2023-04-15T21:41:27;3.55;;;0.80;;
77736;SDS011;66903;59.926;30.404;2023-04-15T21:46:28;1.67;;;0.68;;
77736;SDS011;66903;59.926;30.404;2023-04-15T21:51:28;2.92;;;0.93;;
77736;SDS011;66903;59.926;30.404;2023-04-15T21:56:30;3.03;;;0.90;;
77736;SDS011;66903;59.926;30.404;2023-04-15T22:01:31;2.95;;;1.10;;
77736;SDS011;66903;59.926;30.404;2023-04-15T22:06:32;3.22;;;0.90;;
77736;SDS011;66903;59.926;30.404;2023-04-15T22:11:32;2.25;;;0.70;;
77736;SDS011;66903;59.926;30.404;2023-04-15T22:16:33;2.10;;;0.75;;
77736;SDS011;66903;59.926;30.404;2023-04-15T22:21:33;2.78;;;0.63;;
77736;SDS011;66903;59.926;30.404;2023-04-15T22:26:34;2.40;;;0.60;;
77736;SDS011;66903;59.926;30.404;2023-04-15T22:31:34;2.42;;;1.17;;
77736;SDS011;66903;59.926;30.404;2023-04-15T22:36:35;2.95;;;0.82;;
77736;SDS011;66903;59.926;30.404;2023-04-15T22:41:35;2.47;;;0.70;;
77736;SDS011;66903;59.926;30.404;2023-04-15T22:46:36;1.80;;;0.60;;
77736;SDS011;66903;59.926;30.404;2023-04-15T22:51:37;2.20;;;0.80;;
77736;SDS011;66903;59.926;30.404;2023-04-15T22:56:37;2.72;;;0.77;;
77736;SDS011;66903;59.926;30.404;2023-04-15T23:01:38;2.08;;;0.68;;
77736;SDS011;66903;59.926;30.404;2023-04-15T23:06:38;1.60;;;0.60;;
77736;SDS011;66903;59.926;30.404;2023-04-15T23:11:39;2.42;;;0.60;;
77736;SDS011;66903;59.926;30.404;2023-04-15T23:16:40;1.25;;;0.50;;
77736;SDS011;66903;59.926;30.404;2023-04-15T23:21:40;2.25;;;0.52;;
77736;SDS011;66903;59.926;30.404;2023-04-15T23:26:41;2.65;;;0.60;;
77736;SDS011;66903;59.926;30.404;2023-04-15T23:31:41;1.83;;;0.57;;
77736;SDS011;66903;59.926;30.404;2023-04-15T23:36:42;1.67;;;0.55;;
77736;SDS011;66903;59.926;30.404;2023-04-15T23:41:42;1.33;;;0.55;;
77736;SDS011;66903;59.926;30.404;2023-04-15T23:46:43;1.70;;;0.77;;
77736;SDS011;66903;59.926;30.404;2023-04-15T23:51:43;2.78;;;0.80;;
77736;SDS011;66903;59.926;30.404;2023-04-15T23:56:44;2.22;;;0.70;;
